KCTY/CTY METAR and TAF weather

Enter ICAO airport designator
Station Type Date Time Source
KCTY METAR 2022/01/29 10:55 UTC NOAA

KCTY 291055Z AUTO 30012G17KT 10SM CLR 04/M06 A3013 RMK AO2 T00361063


Station Type Date Time Source
KCTY Decoded METAR 2022/01/29 10:55 UTC NOAA

CROSS CITY AIRPORT, FL, United States (KCTY) 29-38N 083-06W 12M
Jan 29, 2022 - 05:55 AM EST / 2022.01.29 1055 UTC
Wind: from the WNW (300 degrees) at 14 MPH (12 KT) gusting to 20 MPH (17 KT):0
Visibility: 10 mile(s):0
Sky conditions: clear
Temperature: 38.5 F (3.6 C)
Dew Point: 20.7 F (-6.3 C)
Relative Humidity: 48%
Pressure (altimeter): 30.13 in. Hg (1020 hPa)
ob: KCTY 291055Z AUTO 30012G17KT 10SM CLR 04/M06 A3013 RMK AO2 T00361063
cycle: 11

Station Type Date Time Source
KCTY TAF UTC NOAA

Error!

Example: see airport list